Time;durP1;ratioP1;P1;durP2;ratioP2;P2;SDS_P1;SDS_P2;PMS_P1;PMS_P2;Temp;Humidity;BMP_temperature;BMP_pressure;BME280_temperature;BME280_humidity;BME280_pressure;Samples;Min_cycle;Max_cycle;Signal;HPM_P1;HPM_P2
2022/04/13 00:02:26;;;;;;;;;;;;;;;;;;2214679;59;1374;-72
2022/04/13 00:04:59;;;;;;;;;;;;;;;;;;2214677;59;1353;-71
2022/04/13 00:07:32;;;;;;;;;;;;;;;;;;2214409;59;1678;-72
2022/04/13 00:10:07;;;;;;;;;;;;;;;;;;2214169;59;1560;-71
2022/04/13 00:12:40;;;;;;;;;;;;;;;;;;2214590;59;1276;-71
2022/04/13 00:15:14;;;;;;;;;;;;;;;;;;2213821;59;1941;-72
2022/04/13 00:17:50;;;;;;;;;;;;;;;;;;2214253;59;1524;-72
2022/04/13 00:20:24;;;;;;;;;;;;;;;;;;2213587;59;1311;-71
2022/04/13 00:22:57;;;;;;;;;;;;;;;;;;2214313;59;1660;-72
2022/04/13 00:25:30;;;;;;;;;;;;;;;;;;2214421;59;1255;-71
2022/04/13 00:28:03;;;;;;;;;;;;;;;;;;2208284;59;1643;-72
2022/04/13 00:30:36;;;;;;;;;;;;;;;;;;2214712;59;1302;-72
2022/04/13 00:33:12;;;;;;;;;;;;;;;;;;2211365;59;2033;-72
2022/04/13 00:35:45;;;;;;;;;;;;;;;;;;2213808;59;1744;-72
2022/04/13 00:38:21;;;;;;;;;;;;;;;;;;2214492;59;1448;-72
2022/04/13 00:40:55;;;;;;;;;;;;;;;;;;2214964;59;1234;-72
2022/04/13 00:43:28;;;;;;;;;;;;;;;;;;2214782;59;1326;-72
2022/04/13 00:48:43;;;;;;;;;;;;;;;;;;2210485;59;1854;-71
2022/04/13 00:51:16;;;;;;;;;;;;;;;;;;2213144;59;1093;-70
2022/04/13 00:53:50;;;;;;;;;;;;;;;;;;2214500;59;1990;-71
2022/04/13 00:56:24;;;;;;;;;;;;;;;;;;2214024;59;1383;-71
2022/04/13 00:59:00;;;;;;;;;;;;;;;;;;2210197;59;1262;-71
2022/04/13 01:01:33;;;;;;;;;;;;;;;;;;2209950;59;1471;-71
2022/04/13 01:04:12;;;;;;;;;;;;;;;;;;2211058;59;1340;-70
2022/04/13 01:06:46;;;;;;;;;;;;;;;;;;2210325;59;1936;-70
2022/04/13 01:09:19;;;;;;;;;;;;;;;;;;2210483;59;1191;-71
2022/04/13 01:11:52;;;;;;;;;;;;;;;;;;2209857;59;1452;-71
2022/04/13 01:14:26;;;;;;;;;;;;;;;;;;2209896;59;1935;-71
2022/04/13 01:16:59;;;;;;;;;;;;;;;;;;2210886;59;1377;-71
2022/04/13 01:19:35;;;;;;;;;;;;;;;;;;2210171;59;1563;-71
2022/04/13 01:22:23;;;;;;;;;;;;;;;;;;2211241;59;1318;-70
2022/04/13 01:24:57;;;;;;;;;;;;;;;;;;2210627;59;1115;-71
2022/04/13 01:27:30;;;;;;;;;;;;;;;;;;2210952;59;1820;-71
2022/04/13 01:30:03;;;;;;;;;;;;;;;;;;2211567;59;1298;-71
2022/04/13 01:32:36;;;;;;;;;;;;;;;;;;2211271;59;1591;-71
2022/04/13 01:35:10;;;;;;;;;;;;;;;;;;2211484;59;1994;-71
2022/04/13 01:37:45;;;;;;;;;;;;;;;;;;2205579;59;1625;-71
2022/04/13 01:40:18;;;;;;;;;;;;;;;;;;2210419;59;1153;-71
2022/04/13 01:42:52;;;;;;;;;;;;;;;;;;2205838;59;1278;-71
2022/04/13 01:45:25;;;;;;;;;;;;;;;;;;2205498;59;1106;-71
2022/04/13 01:47:58;;;;;;;;;;;;;;;;;;2211173;59;1668;-70
2022/04/13 01:50:31;;;;;;;;;;;;;;;;;;2206180;59;1226;-70
2022/04/13 01:53:07;;;;;;;;;;;;;;;;;;2210554;59;1093;-71
2022/04/13 01:55:40;;;;;;;;;;;;;;;;;;2211393;59;1982;-70
2022/04/13 01:58:13;;;;;;;;;;;;;;;;;;2211367;59;1350;-71
2022/04/13 02:00:46;;;;;;;;;;;;;;;;;;2211580;59;1331;-70
2022/04/13 02:03:20;;;;;;;;;;;;;;;;;;2206050;59;1187;-70
2022/04/13 02:05:54;;;;;;;;;;;;;;;;;;2208262;59;1288;-71
2022/04/13 02:08:30;;;;;;;;;;;;;;;;;;2210859;59;1846;-71
2022/04/13 02:11:03;;;;;;;;;;;;;;;;;;2211394;59;1250;-70
2022/04/13 02:13:38;;;;;;;;;;;;;;;;;;2211203;59;1266;-71
2022/04/13 02:16:11;;;;;;;;;;;;;;;;;;2208485;59;1940;-70
2022/04/13 02:18:44;;;;;;;;;;;;;;;;;;2205541;59;1275;-71
2022/04/13 02:21:17;;;;;;;;;;;;;;;;;;2209814;59;1461;-71
2022/04/13 02:23:53;;;;;;;;;;;;;;;;;;2211431;59;1240;-71
2022/04/13 02:26:26;;;;;;;;;;;;;;;;;;2211239;59;1656;-71
2022/04/13 02:29:00;;;;;;;;;;;;;;;;;;2210591;59;1220;-71
2022/04/13 02:31:33;;;;;;;;;;;;;;;;;;2207035;59;1208;-70
2022/04/13 02:34:06;;;;;;;;;;;;;;;;;;2210749;59;1936;-70
2022/04/13 02:36:40;;;;;;;;;;;;;;;;;;2211033;59;1275;-70
2022/04/13 02:39:15;;;;;;;;;;;;;;;;;;2209405;59;1442;-70
2022/04/13 02:41:49;;;;;;;;;;;;;;;;;;2207842;59;1216;-70
2022/04/13 02:44:22;;;;;;;;;;;;;;;;;;2208686;59;1477;-70
2022/04/13 02:46:55;;;;;;;;;;;;;;;;;;2211524;59;2082;-71
2022/04/13 02:49:28;;;;;;;;;;;;;;;;;;2211364;59;1232;-70
2022/04/13 02:52:01;;;;;;;;;;;;;;;;;;2207789;59;1157;-70
2022/04/13 02:54:37;;;;;;;;;;;;;;;;;;2205084;59;1945;-71
2022/04/13 02:57:10;;;;;;;;;;;;;;;;;;2208462;59;1327;-70
2022/04/13 02:59:46;;;;;;;;;;;;;;;;;;2207801;59;1125;-70
2022/04/13 03:02:19;;;;;;;;;;;;;;;;;;2207742;59;1467;-70
2022/04/13 03:04:52;;;;;;;;;;;;;;;;;;2211488;59;1204;-70
2022/04/13 03:07:29;;;;;;;;;;;;;;;;;;2209320;59;1811;-71
2022/04/13 03:10:05;;;;;;;;;;;;;;;;;;2210967;59;1105;-71
2022/04/13 03:12:39;;;;;;;;;;;;;;;;;;2208615;59;1251;-70
2022/04/13 03:15:14;;;;;;;;;;;;;;;;;;2209557;59;1972;-71
2022/04/13 03:17:47;;;;;;;;;;;;;;;;;;2207366;59;1281;-71
2022/04/13 03:20:21;;;;;;;;;;;;;;;;;;2210425;59;1311;-71
2022/04/13 03:22:54;;;;;;;;;;;;;;;;;;2207185;59;1239;-71
2022/04/13 03:25:30;;;;;;;;;;;;;;;;;;2211094;59;1344;-71
2022/04/13 03:28:03;;;;;;;;;;;;;;;;;;2210780;59;1753;-70
2022/04/13 03:30:36;;;;;;;;;;;;;;;;;;2210858;59;1431;-71
2022/04/13 03:33:09;;;;;;;;;;;;;;;;;;2211218;59;1174;-71
2022/04/13 03:35:42;;;;;;;;;;;;;;;;;;2208924;59;1932;-70
2022/04/13 03:38:16;;;;;;;;;;;;;;;;;;2209060;59;1450;-70
2022/04/13 03:40:52;;;;;;;;;;;;;;;;;;2210962;59;1232;-70
2022/04/13 03:43:26;;;;;;;;;;;;;;;;;;2211379;59;1319;-71
2022/04/13 03:46:00;;;;;;;;;;;;;;;;;;2210058;59;1273;-71
2022/04/13 03:48:33;;;;;;;;;;;;;;;;;;2210925;59;2057;-70
2022/04/13 03:51:07;;;;;;;;;;;;;;;;;;2209379;59;1216;-70
2022/04/13 03:53:40;;;;;;;;;;;;;;;;;;2210416;59;1669;-70
2022/04/13 03:56:16;;;;;;;;;;;;;;;;;;2210622;59;1930;-71
2022/04/13 03:58:49;;;;;;;;;;;;;;;;;;2209326;59;1502;-71
2022/04/13 04:01:22;;;;;;;;;;;;;;;;;;2211206;59;1511;-70
2022/04/13 04:03:55;;;;;;;;;;;;;;;;;;2210736;59;1481;-73
2022/04/13 04:06:28;;;;;;;;;;;;;;;;;;2210877;59;2323;-73
2022/04/13 04:09:01;;;;;;;;;;;;;;;;;;2210770;59;1107;-72
2022/04/13 04:11:37;;;;;;;;;;;;;;;;;;2210623;59;1393;-70
2022/04/13 04:14:10;;;;;;;;;;;;;;;;;;2211091;59;1256;-70
2022/04/13 04:16:44;;;;;;;;;;;;;;;;;;2208853;59;1995;-70
2022/04/13 04:19:17;;;;;;;;;;;;;;;;;;2211234;59;1153;-70
2022/04/13 04:21:50;;;;;;;;;;;;;;;;;;2210447;59;1615;-70
2022/04/13 04:24:23;;;;;;;;;;;;;;;;;;2209515;59;1167;-70
2022/04/13 04:26:59;;;;;;;;;;;;;;;;;;2209377;59;1636;-70
2022/04/13 04:29:32;;;;;;;;;;;;;;;;;;2210403;59;1211;-70
2022/04/13 04:32:06;;;;;;;;;;;;;;;;;;2211426;59;1317;-70
2022/04/13 04:34:40;;;;;;;;;;;;;;;;;;2209050;59;1945;-70
2022/04/13 04:37:13;;;;;;;;;;;;;;;;;;2210408;59;1303;-70
2022/04/13 04:39:47;;;;;;;;;;;;;;;;;;2206809;59;1896;-73
2022/04/13 04:42:23;;;;;;;;;;;;;;;;;;2209116;59;1136;-73
2022/04/13 04:44:57;;;;;;;;;;;;;;;;;;2209572;59;1153;-73
2022/04/13 04:47:30;;;;;;;;;;;;;;;;;;2210985;59;2031;-73
2022/04/13 04:50:03;;;;;;;;;;;;;;;;;;2209930;59;1156;-73
2022/04/13 04:52:36;;;;;;;;;;;;;;;;;;2212198;59;1423;-73
2022/04/13 04:55:10;;;;;;;;;;;;;;;;;;2210035;59;1931;-70
2022/04/13 04:57:46;;;;;;;;;;;;;;;;;;2211983;59;1316;-70
2022/04/13 05:00:20;;;;;;;;;;;;;;;;;;2211289;59;1217;-73
2022/04/13 05:02:54;;;;;;;;;;;;;;;;;;2211929;59;1310;-73
2022/04/13 05:05:27;;;;;;;;;;;;;;;;;;2210303;59;1356;-73
2022/04/13 05:08:00;;;;;;;;;;;;;;;;;;2211798;59;1728;-70
2022/04/13 05:10:34;;;;;;;;;;;;;;;;;;2211857;59;1252;-73
2022/04/13 05:13:10;;;;;;;;;;;;;;;;;;2211949;59;1555;-73
2022/04/13 05:15:44;;;;;;;;;;;;;;;;;;2211304;59;1979;-73
2022/04/13 05:18:18;;;;;;;;;;;;;;;;;;2212103;59;1332;-72
2022/04/13 05:20:51;;;;;;;;;;;;;;;;;;2212175;59;1297;-72
2022/04/13 05:23:24;;;;;;;;;;;;;;;;;;2211574;59;1196;-73
2022/04/13 05:25:57;;;;;;;;;;;;;;;;;;2211580;59;1269;-73
2022/04/13 05:28:33;;;;;;;;;;;;;;;;;;2211183;59;2037;-73
2022/04/13 05:31:08;;;;;;;;;;;;;;;;;;2211010;59;1569;-73
2022/04/13 05:33:41;;;;;;;;;;;;;;;;;;2212119;59;1336;-72
2022/04/13 05:36:14;;;;;;;;;;;;;;;;;;2211495;59;1987;-73
2022/04/13 05:38:48;;;;;;;;;;;;;;;;;;2211577;59;1470;-73
2022/04/13 05:41:21;;;;;;;;;;;;;;;;;;2212191;59;1565;-73
2022/04/13 05:43:56;;;;;;;;;;;;;;;;;;2212198;59;1289;-73
2022/04/13 05:46:30;;;;;;;;;;;;;;;;;;2211805;59;1575;-73
2022/04/13 05:49:03;;;;;;;;;;;;;;;;;;2210649;59;1415;-73
2022/04/13 05:51:36;;;;;;;;;;;;;;;;;;2211104;59;1123;-73
2022/04/13 05:54:09;;;;;;;;;;;;;;;;;;2211523;59;1903;-74
2022/04/13 05:56:42;;;;;;;;;;;;;;;;;;2211595;59;1941;-73
2022/04/13 05:59:18;;;;;;;;;;;;;;;;;;2210953;59;1463;-73
2022/04/13 06:01:51;;;;;;;;;;;;;;;;;;2210690;59;1473;-70
2022/04/13 06:04:25;;;;;;;;;;;;;;;;;;2207793;59;1476;-70
2022/04/13 06:06:59;;;;;;;;;;;;;;;;;;2211201;59;1555;-70
2022/04/13 06:09:32;;;;;;;;;;;;;;;;;;2211278;59;1433;-71
2022/04/13 06:12:06;;;;;;;;;;;;;;;;;;2210577;59;1311;-71
2022/04/13 06:14:41;;;;;;;;;;;;;;;;;;2211040;59;1216;-71
2022/04/13 06:17:16;;;;;;;;;;;;;;;;;;2211161;59;1937;-70
2022/04/13 06:19:49;;;;;;;;;;;;;;;;;;2211367;59;1160;-70
2022/04/13 06:22:22;;;;;;;;;;;;;;;;;;2210826;59;1780;-70
2022/04/13 06:24:55;;;;;;;;;;;;;;;;;;2210850;59;1682;-70
2022/04/13 06:27:28;;;;;;;;;;;;;;;;;;2210144;59;1522;-70
2022/04/13 06:30:05;;;;;;;;;;;;;;;;;;2211538;59;1210;-70
2022/04/13 06:32:38;;;;;;;;;;;;;;;;;;2205150;59;1247;-70
2022/04/13 06:35:12;;;;;;;;;;;;;;;;;;2205502;59;1106;-70
2022/04/13 06:37:47;;;;;;;;;;;;;;;;;;2206055;59;2418;-70
2022/04/13 06:40:20;;;;;;;;;;;;;;;;;;2209345;59;1762;-70
2022/04/13 06:42:53;;;;;;;;;;;;;;;;;;2206238;59;1758;-71
2022/04/13 06:45:29;;;;;;;;;;;;;;;;;;2210101;59;1279;-71
2022/04/13 06:48:02;;;;;;;;;;;;;;;;;;2210013;53;3546;-72
2022/04/13 06:50:35;;;;;;;;;;;;;;;;;;2209890;59;1204;-73
2022/04/13 06:53:08;;;;;;;;;;;;;;;;;;2211458;67;1170;-72
2022/04/13 06:55:42;;;;;;;;;;;;;;;;;;2211429;59;1979;-73
2022/04/13 06:58:15;;;;;;;;;;;;;;;;;;2214337;59;1606;-73
2022/04/13 07:00:51;;;;;;;;;;;;;;;;;;2214715;59;1209;-72
2022/04/13 07:03:24;;;;;;;;;;;;;;;;;;2214184;59;1769;-72
2022/04/13 07:05:57;;;;;;;;;;;;;;;;;;2215702;59;1287;-72
2022/04/13 07:08:30;;;;;;;;;;;;;;;;;;2211509;59;2264;-73
2022/04/13 07:11:03;;;;;;;;;;;;;;;;;;2210804;59;2662;-73
2022/04/13 07:13:36;;;;;;;;;;;;;;;;;;2215292;59;1600;-72
2022/04/13 07:16:12;;;;;;;;;;;;;;;;;;2215443;58;1912;-72
2022/04/13 07:18:45;;;;;;;;;;;;;;;;;;2215299;59;1585;-73
2022/04/13 07:21:19;;;;;;;;;;;;;;;;;;2215236;59;1597;-72
2022/04/13 07:23:52;;;;;;;;;;;;;;;;;;2214321;59;2344;-73
2022/04/13 07:26:25;;;;;;;;;;;;;;;;;;2210207;59;1577;-72
2022/04/13 07:28:58;;;;;;;;;;;;;;;;;;2213864;59;1671;-72
2022/04/13 07:31:34;;;;;;;;;;;;;;;;;;2209412;59;1844;-73
2022/04/13 07:34:07;;;;;;;;;;;;;;;;;;2213466;59;1831;-73
2022/04/13 07:36:40;;;;;;;;;;;;;;;;;;2215531;59;1944;-73
2022/04/13 07:39:14;;;;;;;;;;;;;;;;;;2214708;59;1888;-73
2022/04/13 07:41:47;;;;;;;;;;;;;;;;;;2212493;59;1490;-73
2022/04/13 07:44:20;;;;;;;;;;;;;;;;;;2214328;59;1810;-73
2022/04/13 07:46:56;;;;;;;;;;;;;;;;;;2215966;59;1873;-73
2022/04/13 07:49:29;;;;;;;;;;;;;;;;;;2215704;59;1653;-73
2022/04/13 07:52:02;;;;;;;;;;;;;;;;;;2215581;59;1144;-74
2022/04/13 07:54:36;;;;;;;;;;;;;;;;;;2215637;59;2057;-73
2022/04/13 07:57:09;;;;;;;;;;;;;;;;;;2215770;59;1936;-73
2022/04/13 07:59:43;;;;;;;;;;;;;;;;;;2215528;59;1168;-73
2022/04/13 08:02:20;;;;;;;;;;;;;;;;;;2215055;59;1099;-73
2022/04/13 08:04:53;;;;;;;;;;;;;;;;;;2213490;59;1599;-73
2022/04/13 08:07:26;;;;;;;;;;;;;;;;;;2214508;59;1858;-73
2022/04/13 08:09:59;;;;;;;;;;;;;;;;;;2214577;59;2412;-73
2022/04/13 08:12:33;;;;;;;;;;;;;;;;;;2213669;59;2501;-73
2022/04/13 08:15:06;;;;;;;;;;;;;;;;;;2213266;59;1626;-73
2022/04/13 08:17:43;;;;;;;;;;;;;;;;;;2214972;59;1929;-73
2022/04/13 08:20:17;;;;;;;;;;;;;;;;;;2212085;59;1922;-73
2022/04/13 08:22:50;;;;;;;;;;;;;;;;;;2213648;58;1619;-73
2022/04/13 08:25:23;;;;;;;;;;;;;;;;;;2213724;59;1273;-73
2022/04/13 08:27:56;;;;;;;;;;;;;;;;;;2213072;59;2013;-73
2022/04/13 08:30:29;;;;;;;;;;;;;;;;;;2214637;59;1245;-73
2022/04/13 08:33:05;;;;;;;;;;;;;;;;;;2214807;59;1312;-73
2022/04/13 08:35:38;;;;;;;;;;;;;;;;;;2215618;59;1284;-73
2022/04/13 08:38:11;;;;;;;;;;;;;;;;;;2214815;59;1940;-73
2022/04/13 08:40:47;;;;;;;;;;;;;;;;;;2214058;59;2556;-73
2022/04/13 08:43:24;;;;;;;;;;;;;;;;;;2215077;59;1129;-73
2022/04/13 08:45:59;;;;;;;;;;;;;;;;;;2214640;59;1269;-73
2022/04/13 08:48:36;;;;;;;;;;;;;;;;;;2213892;58;2067;-73
2022/04/13 08:51:12;;;;;;;;;;;;;;;;;;2211478;59;2006;-73
2022/04/13 08:53:46;;;;;;;;;;;;;;;;;;2214831;59;1358;-73
2022/04/13 08:56:20;;;;;;;;;;;;;;;;;;2214218;59;1940;-73
2022/04/13 08:58:58;;;;;;;;;;;;;;;;;;2214071;59;1342;-73
2022/04/13 09:01:37;;;;;;;;;;;;;;;;;;2214207;59;1261;-73
2022/04/13 09:04:15;;;;;;;;;;;;;;;;;;2214452;59;1550;-73
2022/04/13 09:06:48;;;;;;;;;;;;;;;;;;2213863;59;1858;-73
2022/04/13 09:09:22;;;;;;;;;;;;;;;;;;2215214;66;1978;-73
2022/04/13 09:11:56;;;;;;;;;;;;;;;;;;2212682;59;2124;-73
2022/04/13 09:14:30;;;;;;;;;;;;;;;;;;2211639;59;2505;-73
2022/04/13 09:17:04;;;;;;;;;;;;;;;;;;2214966;59;1929;-73
2022/04/13 09:19:40;;;;;;;;;;;;;;;;;;2215004;59;1717;-73
2022/04/13 09:22:13;;;;;;;;;;;;;;;;;;2212424;59;1821;-73
2022/04/13 09:24:47;;;;;;;;;;;;;;;;;;2206416;59;1759;-73
2022/04/13 09:27:21;;;;;;;;;;;;;;;;;;2211011;59;1965;-73
2022/04/13 09:29:54;;;;;;;;;;;;;;;;;;2213376;59;1615;-73
2022/04/13 09:32:28;;;;;;;;;;;;;;;;;;2214637;59;2491;-73
2022/04/13 09:35:04;;;;;;;;;;;;;;;;;;2214497;59;2247;-74
2022/04/13 09:37:38;;;;;;;;;;;;;;;;;;2214796;59;7051;-73
2022/04/13 09:40:11;;;;;;;;;;;;;;;;;;2217240;59;2603;-73
2022/04/13 09:42:45;;;;;;;;;;;;;;;;;;2214814;59;1703;-73
2022/04/13 09:45:18;;;;;;;;;;;;;;;;;;2217005;59;1579;-73
2022/04/13 09:47:51;;;;;;;;;;;;;;;;;;2212828;59;1864;-73
2022/04/13 09:50:28;;;;;;;;;;;;;;;;;;2217897;59;1433;-73
2022/04/13 09:53:03;;;;;;;;;;;;;;;;;;2217380;59;1201;-73
2022/04/13 09:55:37;;;;;;;;;;;;;;;;;;2216503;59;1069;-73
2022/04/13 09:58:11;;;;;;;;;;;;;;;;;;2215798;59;1908;-73
2022/04/13 10:00:45;;;;;;;;;;;;;;;;;;2215229;59;1238;-74
2022/04/13 10:03:19;;;;;;;;;;;;;;;;;;2215250;59;1596;-73
2022/04/13 10:05:57;;;;;;;;;;;;;;;;;;2218102;59;1205;-73
2022/04/13 10:08:31;;;;;;;;;;;;;;;;;;2215191;59;1839;-73
2022/04/13 10:11:10;;;;;;;;;;;;;;;;;;2217024;59;1282;-73
2022/04/13 10:13:43;;;;;;;;;;;;;;;;;;2211932;59;2810;-72
2022/04/13 10:16:16;;;;;;;;;;;;;;;;;;2215121;59;2359;-72
2022/04/13 10:18:56;;;;;;;;;;;;;;;;;;2217083;59;1935;-73
2022/04/13 10:21:40;;;;;;;;;;;;;;;;;;2217048;59;1604;-73
2022/04/13 10:24:25;;;;;;;;;;;;;;;;;;2215036;59;2398;-73
2022/04/13 10:27:05;;;;;;;;;;;;;;;;;;2215244;59;2345;-73
2022/04/13 10:29:39;;;;;;;;;;;;;;;;;;2215447;59;1304;-73
2022/04/13 10:32:13;;;;;;;;;;;;;;;;;;2216372;59;1204;-73
2022/04/13 10:34:48;;;;;;;;;;;;;;;;;;2214095;59;2486;-73
2022/04/13 10:37:26;;;;;;;;;;;;;;;;;;2215820;59;1981;-74
2022/04/13 10:40:01;;;;;;;;;;;;;;;;;;2215744;59;2695;-73
2022/04/13 10:42:36;;;;;;;;;;;;;;;;;;2215878;59;1556;-73
2022/04/13 10:45:10;;;;;;;;;;;;;;;;;;2215200;59;1600;-73
2022/04/13 10:47:50;;;;;;;;;;;;;;;;;;2214104;59;1732;-73
2022/04/13 10:50:30;;;;;;;;;;;;;;;;;;2215761;59;1704;-74
2022/04/13 10:53:12;;;;;;;;;;;;;;;;;;2217074;59;1234;-73
2022/04/13 10:55:47;;;;;;;;;;;;;;;;;;2216441;66;1105;-73
2022/04/13 10:58:26;;;;;;;;;;;;;;;;;;2215331;59;1940;-72
2022/04/13 11:01:04;;;;;;;;;;;;;;;;;;2215683;59;1200;-73
2022/04/13 11:03:38;;;;;;;;;;;;;;;;;;2214772;59;1969;-72
2022/04/13 11:06:13;;;;;;;;;;;;;;;;;;2214671;59;1628;-72
2022/04/13 11:08:52;;;;;;;;;;;;;;;;;;2212359;58;2069;-72
2022/04/13 11:11:25;;;;;;;;;;;;;;;;;;2216061;58;1315;-73
2022/04/13 11:13:59;;;;;;;;;;;;;;;;;;2215871;59;2194;-72
2022/04/13 11:16:32;;;;;;;;;;;;;;;;;;2214401;59;2348;-73
2022/04/13 11:19:23;;;;;;;;;;;;;;;;;;2216568;59;1989;-73
2022/04/13 11:22:15;;;;;;;;;;;;;;;;;;2215840;59;1253;-73
2022/04/13 11:25:02;;;;;;;;;;;;;;;;;;2214550;59;1476;-73
2022/04/13 11:27:50;;;;;;;;;;;;;;;;;;2214787;59;2136;-72
2022/04/13 11:30:23;;;;;;;;;;;;;;;;;;2215155;59;1856;-72
2022/04/13 11:32:56;;;;;;;;;;;;;;;;;;2215590;59;1677;-73
2022/04/13 11:35:29;;;;;;;;;;;;;;;;;;2213849;59;2671;-72
2022/04/13 11:38:08;;;;;;;;;;;;;;;;;;2215856;59;2125;-72
2022/04/13 11:41:05;;;;;;;;;;;;;;;;;;2211333;59;2011;-72
2022/04/13 11:43:41;;;;;;;;;;;;;;;;;;2216038;59;1573;-72
2022/04/13 11:46:33;;;;;;;;;;;;;;;;;;2213922;59;1709;-72
2022/04/13 11:49:10;;;;;;;;;;;;;;;;;;2215705;59;1330;-73
2022/04/13 11:51:43;;;;;;;;;;;;;;;;;;2214949;59;1640;-73
2022/04/13 11:54:16;;;;;;;;;;;;;;;;;;2215407;59;1509;-73
2022/04/13 11:56:56;;;;;;;;;;;;;;;;;;2216159;59;1231;-72
2022/04/13 11:59:49;;;;;;;;;;;;;;;;;;2216487;59;1947;-73
2022/04/13 12:02:25;;;;;;;;;;;;;;;;;;2215855;59;1264;-73
2022/04/13 12:05:06;;;;;;;;;;;;;;;;;;2213572;59;1753;-72
2022/04/13 12:07:40;;;;;;;;;;;;;;;;;;2214920;59;1812;-72
2022/04/13 12:10:14;;;;;;;;;;;;;;;;;;2214395;59;2434;-72
2022/04/13 12:12:55;;;;;;;;;;;;;;;;;;2215868;59;1366;-72
2022/04/13 12:15:28;;;;;;;;;;;;;;;;;;2214437;59;2647;-72
2022/04/13 12:18:01;;;;;;;;;;;;;;;;;;2215638;59;2321;-73
2022/04/13 12:20:35;;;;;;;;;;;;;;;;;;2215933;59;1349;-73
2022/04/13 12:23:18;;;;;;;;;;;;;;;;;;2216523;59;1144;-73
2022/04/13 12:25:52;;;;;;;;;;;;;;;;;;2214858;59;1239;-73
2022/04/13 12:28:28;;;;;;;;;;;;;;;;;;2215181;59;1872;-72
2022/04/13 12:31:02;;;;;;;;;;;;;;;;;;2215603;59;1397;-73
2022/04/13 12:33:36;;;;;;;;;;;;;;;;;;2215369;59;1264;-72
2022/04/13 12:36:10;;;;;;;;;;;;;;;;;;2214940;59;2588;-73
2022/04/13 12:38:46;;;;;;;;;;;;;;;;;;2214523;59;2204;-72
2022/04/13 12:41:20;;;;;;;;;;;;;;;;;;2216957;59;1227;-72
2022/04/13 12:43:57;;;;;;;;;;;;;;;;;;2211701;59;1859;-72
2022/04/13 12:49:09;;;;;;;;;;;;;;;;;;2197369;59;1855;-72
2022/04/13 12:51:43;;;;;;;;;;;;;;;;;;2202282;59;1224;-71
2022/04/13 12:54:20;;;;;;;;;;;;;;;;;;2200698;59;1225;-71
2022/04/13 12:56:54;;;;;;;;;;;;;;;;;;2201779;59;1562;-71
2022/04/13 12:59:34;;;;;;;;;;;;;;;;;;2204603;59;1942;-71
2022/04/13 13:02:07;;;;;;;;;;;;;;;;;;2205897;58;1442;-72
2022/04/13 13:04:43;;;;;;;;;;;;;;;;;;2202741;59;1188;-71
2022/04/13 13:07:17;;;;;;;;;;;;;;;;;;2201062;59;1932;-71
2022/04/13 13:09:55;;;;;;;;;;;;;;;;;;2202950;59;1871;-71
2022/04/13 13:12:31;;;;;;;;;;;;;;;;;;2203276;59;1423;-71
2022/04/13 13:15:07;;;;;;;;;;;;;;;;;;2202624;59;2662;-71
2022/04/13 13:17:42;;;;;;;;;;;;;;;;;;2197870;59;2594;-71
2022/04/13 13:20:16;;;;;;;;;;;;;;;;;;2203258;59;1212;-71
2022/04/13 13:22:50;;;;;;;;;;;;;;;;;;2204970;59;1253;-71
2022/04/13 13:25:23;;;;;;;;;;;;;;;;;;2203666;59;1232;-72
2022/04/13 13:27:59;;;;;;;;;;;;;;;;;;2209140;59;1772;-72
2022/04/13 13:30:40;;;;;;;;;;;;;;;;;;2202971;59;1719;-72
2022/04/13 13:33:14;;;;;;;;;;;;;;;;;;2201378;59;2148;-72
2022/04/13 13:35:48;;;;;;;;;;;;;;;;;;2202410;59;2528;-71
2022/04/13 13:38:24;;;;;;;;;;;;;;;;;;2200256;59;2585;-71
2022/04/13 13:40:57;;;;;;;;;;;;;;;;;;2202349;59;1490;-71
2022/04/13 13:43:41;;;;;;;;;;;;;;;;;;2201672;59;1253;-72
2022/04/13 13:46:19;;;;;;;;;;;;;;;;;;2200470;59;1689;-71
2022/04/13 13:48:52;;;;;;;;;;;;;;;;;;2200210;59;1807;-71
2022/04/13 13:51:25;;;;;;;;;;;;;;;;;;2203563;59;1193;-71
2022/04/13 13:53:58;;;;;;;;;;;;;;;;;;2199169;59;1700;-71
2022/04/13 13:56:31;;;;;;;;;;;;;;;;;;2201819;59;1258;-71
2022/04/13 13:59:04;;;;;;;;;;;;;;;;;;2203944;59;1983;-71
2022/04/13 14:01:40;;;;;;;;;;;;;;;;;;2203934;59;1565;-71
2022/04/13 14:04:13;;;;;;;;;;;;;;;;;;2202209;59;1502;-71
2022/04/13 14:06:47;;;;;;;;;;;;;;;;;;2202989;58;2420;-71
2022/04/13 14:09:20;;;;;;;;;;;;;;;;;;2201267;59;1836;-71
2022/04/13 14:11:53;;;;;;;;;;;;;;;;;;2202608;59;1780;-72
2022/04/13 14:14:26;;;;;;;;;;;;;;;;;;2200860;59;1656;-70
2022/04/13 14:17:02;;;;;;;;;;;;;;;;;;2200197;59;2460;-71
2022/04/13 14:19:35;;;;;;;;;;;;;;;;;;2201014;59;2259;-70
2022/04/13 14:22:08;;;;;;;;;;;;;;;;;;2202030;59;1265;-70
2022/04/13 14:24:42;;;;;;;;;;;;;;;;;;2205307;59;1627;-70
2022/04/13 14:27:15;;;;;;;;;;;;;;;;;;2196393;59;2504;-71
2022/04/13 14:29:48;;;;;;;;;;;;;;;;;;2202382;59;1309;-71
2022/04/13 14:32:24;;;;;;;;;;;;;;;;;;2211306;59;1562;-71
2022/04/13 14:34:58;;;;;;;;;;;;;;;;;;2201277;59;1937;-71
2022/04/13 14:37:33;;;;;;;;;;;;;;;;;;2201499;58;2132;-70
2022/04/13 14:40:08;;;;;;;;;;;;;;;;;;2199373;59;2564;-71
2022/04/13 14:42:41;;;;;;;;;;;;;;;;;;2200832;59;1723;-71
2022/04/13 14:45:14;;;;;;;;;;;;;;;;;;2203158;59;1218;-70
2022/04/13 14:47:50;;;;;;;;;;;;;;;;;;2200211;59;1782;-70
2022/04/13 14:50:24;;;;;;;;;;;;;;;;;;2200522;59;1648;-71
2022/04/13 14:52:57;;;;;;;;;;;;;;;;;;2201547;59;1242;-70
2022/04/13 14:55:30;;;;;;;;;;;;;;;;;;2203124;59;1225;-71
2022/04/13 14:58:03;;;;;;;;;;;;;;;;;;2199605;59;1882;-70
2022/04/13 15:00:36;;;;;;;;;;;;;;;;;;2199228;59;1940;-71
2022/04/13 15:03:12;;;;;;;;;;;;;;;;;;2203207;59;1902;-71
2022/04/13 15:05:46;;;;;;;;;;;;;;;;;;2204810;59;1312;-71
2022/04/13 15:08:19;;;;;;;;;;;;;;;;;;2204814;59;1552;-70
2022/04/13 15:10:52;;;;;;;;;;;;;;;;;;2204586;59;1613;-71
2022/04/13 15:13:26;;;;;;;;;;;;;;;;;;2200852;59;1536;-71
2022/04/13 15:15:59;;;;;;;;;;;;;;;;;;2202877;59;1587;-70
2022/04/13 15:18:35;;;;;;;;;;;;;;;;;;2205056;59;1935;-71
2022/04/13 15:21:08;;;;;;;;;;;;;;;;;;2202190;59;1639;-71
2022/04/13 15:23:41;;;;;;;;;;;;;;;;;;2201434;59;1919;-70
2022/04/13 15:26:16;;;;;;;;;;;;;;;;;;2204651;59;1272;-70
2022/04/13 15:28:49;;;;;;;;;;;;;;;;;;2203919;59;1687;-70
2022/04/13 15:31:22;;;;;;;;;;;;;;;;;;2205646;59;1262;-71
2022/04/13 15:33:59;;;;;;;;;;;;;;;;;;2204601;59;1242;-70
2022/04/13 15:36:32;;;;;;;;;;;;;;;;;;2207457;58;1688;-71
2022/04/13 15:39:05;;;;;;;;;;;;;;;;;;2203799;59;2536;-70
2022/04/13 15:41:40;;;;;;;;;;;;;;;;;;2201636;59;2600;-71
2022/04/13 15:44:14;;;;;;;;;;;;;;;;;;2204212;59;1298;-70
2022/04/13 15:46:47;;;;;;;;;;;;;;;;;;2207447;59;1707;-70
2022/04/13 15:49:23;;;;;;;;;;;;;;;;;;2205253;59;1278;-71
2022/04/13 15:51:56;;;;;;;;;;;;;;;;;;2205750;59;2077;-71
2022/04/13 15:54:29;;;;;;;;;;;;;;;;;;2205718;59;1181;-71
2022/04/13 15:57:03;;;;;;;;;;;;;;;;;;2215111;59;1402;-70
2022/04/13 15:59:36;;;;;;;;;;;;;;;;;;2210342;59;1931;-70
2022/04/13 16:02:09;;;;;;;;;;;;;;;;;;2204017;59;1779;-70
2022/04/13 16:04:45;;;;;;;;;;;;;;;;;;2212580;58;1278;-71
2022/04/13 16:07:18;;;;;;;;;;;;;;;;;;2202936;59;1864;-70
2022/04/13 16:09:51;;;;;;;;;;;;;;;;;;2203335;59;1449;-70
2022/04/13 16:12:24;;;;;;;;;;;;;;;;;;2204587;59;1731;-70
2022/04/13 16:14:57;;;;;;;;;;;;;;;;;;2201664;59;1597;-70
2022/04/13 16:17:31;;;;;;;;;;;;;;;;;;2202317;59;1463;-70
2022/04/13 16:20:07;;;;;;;;;;;;;;;;;;2204122;59;1933;-70
2022/04/13 16:22:40;;;;;;;;;;;;;;;;;;2203686;59;1295;-70
2022/04/13 16:25:14;;;;;;;;;;;;;;;;;;2201899;59;1199;-70
2022/04/13 16:27:47;;;;;;;;;;;;;;;;;;2202374;59;1747;-70
2022/04/13 16:30:20;;;;;;;;;;;;;;;;;;2203363;58;1742;-70
2022/04/13 16:32:53;;;;;;;;;;;;;;;;;;2202749;59;1633;-70
2022/04/13 16:35:29;;;;;;;;;;;;;;;;;;2204036;59;1187;-70
2022/04/13 16:38:02;;;;;;;;;;;;;;;;;;2202657;58;1273;-70
2022/04/13 16:40:35;;;;;;;;;;;;;;;;;;2200465;59;2811;-70
2022/04/13 16:43:08;;;;;;;;;;;;;;;;;;2201747;59;1132;-70
2022/04/13 16:45:42;;;;;;;;;;;;;;;;;;2209012;58;1258;-70
2022/04/13 16:48:15;;;;;;;;;;;;;;;;;;2200911;59;1607;-70
2022/04/13 16:50:51;;;;;;;;;;;;;;;;;;2201834;59;1527;-71
2022/04/13 16:53:24;;;;;;;;;;;;;;;;;;2202557;59;1266;-70
2022/04/13 16:55:57;;;;;;;;;;;;;;;;;;2202984;59;1204;-70
2022/04/13 16:58:31;;;;;;;;;;;;;;;;;;2203276;59;1218;-70
2022/04/13 17:01:04;;;;;;;;;;;;;;;;;;2213088;59;1940;-70
2022/04/13 17:03:37;;;;;;;;;;;;;;;;;;2216069;59;1608;-70
2022/04/13 17:06:13;;;;;;;;;;;;;;;;;;2211655;59;1525;-70
2022/04/13 17:08:46;;;;;;;;;;;;;;;;;;2204793;59;1923;-70
2022/04/13 17:11:20;;;;;;;;;;;;;;;;;;2208368;59;1335;-70
2022/04/13 17:13:53;;;;;;;;;;;;;;;;;;2202404;59;1818;-70
2022/04/13 17:16:27;;;;;;;;;;;;;;;;;;2200411;59;1611;-70
2022/04/13 17:19:01;;;;;;;;;;;;;;;;;;2201567;59;1924;-70
2022/04/13 17:21:37;;;;;;;;;;;;;;;;;;2198791;59;1807;-70
2022/04/13 17:24:11;;;;;;;;;;;;;;;;;;2199908;59;1969;-70
2022/04/13 17:26:45;;;;;;;;;;;;;;;;;;2201619;59;1559;-70
2022/04/13 17:29:19;;;;;;;;;;;;;;;;;;2200135;59;1208;-70
2022/04/13 17:31:52;;;;;;;;;;;;;;;;;;2203716;59;1180;-70
2022/04/13 17:34:26;;;;;;;;;;;;;;;;;;2200601;59;1654;-71
2022/04/13 17:37:02;;;;;;;;;;;;;;;;;;2199798;59;1723;-70
2022/04/13 17:39:35;;;;;;;;;;;;;;;;;;2200560;59;2557;-71
2022/04/13 17:42:08;;;;;;;;;;;;;;;;;;2203951;59;2505;-70
2022/04/13 17:44:42;;;;;;;;;;;;;;;;;;2200849;59;1412;-71
2022/04/13 17:47:17;;;;;;;;;;;;;;;;;;2202629;59;2105;-71
2022/04/13 17:49:50;;;;;;;;;;;;;;;;;;2203073;59;1284;-71
2022/04/13 17:52:26;;;;;;;;;;;;;;;;;;2201789;59;1254;-70
2022/04/13 17:54:59;;;;;;;;;;;;;;;;;;2202838;59;1254;-71
2022/04/13 17:57:32;;;;;;;;;;;;;;;;;;2202267;59;1656;-71
2022/04/13 18:00:07;;;;;;;;;;;;;;;;;;2204617;59;1988;-70